sensor_id;sensor_type;location;lat;lon;timestamp;P1;durP1;ratioP1;P2;durP2;ratioP2
28756;SDS011;44294;48.282;14.282;2023-05-24T00:02:21;1.43;;;1.20;;
28756;SDS011;44294;48.282;14.282;2023-05-24T00:05:10;1.20;;;1.10;;
28756;SDS011;44294;48.282;14.282;2023-05-24T00:07:58;1.10;;;1.10;;
28756;SDS011;44294;48.282;14.282;2023-05-24T00:10:45;1.00;;;1.00;;
28756;SDS011;44294;48.282;14.282;2023-05-24T00:13:33;1.10;;;1.00;;
28756;SDS011;44294;48.282;14.282;2023-05-24T00:16:21;1.20;;;1.10;;
28756;SDS011;44294;48.282;14.282;2023-05-24T00:19:08;1.10;;;1.00;;
28756;SDS011;44294;48.282;14.282;2023-05-24T00:21:56;0.90;;;0.90;;
28756;SDS011;44294;48.282;14.282;2023-05-24T00:24:43;1.00;;;1.00;;
28756;SDS011;44294;48.282;14.282;2023-05-24T00:27:31;1.00;;;1.00;;
28756;SDS011;44294;48.282;14.282;2023-05-24T00:30:18;1.00;;;1.00;;
28756;SDS011;44294;48.282;14.282;2023-05-24T00:33:06;0.90;;;0.90;;
28756;SDS011;44294;48.282;14.282;2023-05-24T00:35:53;1.00;;;1.00;;
28756;SDS011;44294;48.282;14.282;2023-05-24T00:38:43;1.23;;;1.10;;
28756;SDS011;44294;48.282;14.282;2023-05-24T00:41:31;1.00;;;1.00;;
28756;SDS011;44294;48.282;14.282;2023-05-24T00:44:18;1.00;;;1.00;;
28756;SDS011;44294;48.282;14.282;2023-05-24T00:47:05;0.90;;;0.90;;
28756;SDS011;44294;48.282;14.282;2023-05-24T00:49:53;1.33;;;1.00;;
28756;SDS011;44294;48.282;14.282;2023-05-24T00:52:40;0.90;;;0.90;;
28756;SDS011;44294;48.282;14.282;2023-05-24T00:55:28;0.97;;;0.97;;
28756;SDS011;44294;48.282;14.282;2023-05-24T00:58:16;1.00;;;1.00;;
28756;SDS011;44294;48.282;14.282;2023-05-24T01:01:03;1.00;;;1.00;;
28756;SDS011;44294;48.282;14.282;2023-05-24T01:03:51;0.90;;;0.90;;
28756;SDS011;44294;48.282;14.282;2023-05-24T01:06:46;1.00;;;1.00;;
28756;SDS011;44294;48.282;14.282;2023-05-24T01:15:30;1.00;;;1.00;;
28756;SDS011;44294;48.282;14.282;2023-05-24T01:18:19;1.10;;;1.10;;
28756;SDS011;44294;48.282;14.282;2023-05-24T01:27:11;1.00;;;1.00;;
28756;SDS011;44294;48.282;14.282;2023-05-24T01:30:00;0.90;;;0.90;;
28756;SDS011;44294;48.282;14.282;2023-05-24T01:32:48;0.90;;;0.90;;
28756;SDS011;44294;48.282;14.282;2023-05-24T01:35:35;1.30;;;1.20;;
28756;SDS011;44294;48.282;14.282;2023-05-24T01:38:24;1.03;;;1.03;;
28756;SDS011;44294;48.282;14.282;2023-05-24T01:44:23;1.17;;;1.10;;
28756;SDS011;44294;48.282;14.282;2023-05-24T01:50:20;1.13;;;1.10;;
28756;SDS011;44294;48.282;14.282;2023-05-24T01:53:08;1.00;;;1.00;;
28756;SDS011;44294;48.282;14.282;2023-05-24T01:55:55;1.00;;;1.00;;
28756;SDS011;44294;48.282;14.282;2023-05-24T01:58:43;1.00;;;1.00;;
28756;SDS011;44294;48.282;14.282;2023-05-24T02:01:31;1.00;;;1.00;;
28756;SDS011;44294;48.282;14.282;2023-05-24T02:04:19;1.20;;;1.10;;
28756;SDS011;44294;48.282;14.282;2023-05-24T02:07:06;1.20;;;1.10;;
28756;SDS011;44294;48.282;14.282;2023-05-24T02:09:54;1.10;;;1.10;;
28756;SDS011;44294;48.282;14.282;2023-05-24T02:12:42;1.00;;;1.00;;
28756;SDS011;44294;48.282;14.282;2023-05-24T02:15:29;1.10;;;1.10;;
28756;SDS011;44294;48.282;14.282;2023-05-24T02:18:16;0.93;;;0.93;;
28756;SDS011;44294;48.282;14.282;2023-05-24T02:21:03;1.00;;;1.00;;
28756;SDS011;44294;48.282;14.282;2023-05-24T02:23:51;1.20;;;1.00;;
28756;SDS011;44294;48.282;14.282;2023-05-24T02:26:38;1.43;;;1.10;;
28756;SDS011;44294;48.282;14.282;2023-05-24T02:29:25;1.80;;;1.07;;
28756;SDS011;44294;48.282;14.282;2023-05-24T02:32:13;1.10;;;1.10;;
28756;SDS011;44294;48.282;14.282;2023-05-24T02:35:00;1.00;;;1.00;;
28756;SDS011;44294;48.282;14.282;2023-05-24T02:37:48;1.10;;;1.10;;
28756;SDS011;44294;48.282;14.282;2023-05-24T02:40:35;1.20;;;1.10;;
28756;SDS011;44294;48.282;14.282;2023-05-24T02:43:22;1.17;;;1.17;;
28756;SDS011;44294;48.282;14.282;2023-05-24T02:46:10;1.00;;;1.00;;
28756;SDS011;44294;48.282;14.282;2023-05-24T02:48:57;1.33;;;1.07;;
28756;SDS011;44294;48.282;14.282;2023-05-24T02:51:45;1.00;;;1.00;;
28756;SDS011;44294;48.282;14.282;2023-05-24T02:54:32;1.10;;;1.10;;
28756;SDS011;44294;48.282;14.282;2023-05-24T02:57:19;1.23;;;1.13;;
28756;SDS011;44294;48.282;14.282;2023-05-24T03:00:08;1.00;;;1.00;;
28756;SDS011;44294;48.282;14.282;2023-05-24T03:02:56;1.00;;;1.00;;
28756;SDS011;44294;48.282;14.282;2023-05-24T03:05:45;1.20;;;1.10;;
28756;SDS011;44294;48.282;14.282;2023-05-24T03:08:33;1.00;;;1.00;;
28756;SDS011;44294;48.282;14.282;2023-05-24T03:11:22;1.10;;;1.10;;
28756;SDS011;44294;48.282;14.282;2023-05-24T03:14:09;1.17;;;1.13;;
28756;SDS011;44294;48.282;14.282;2023-05-24T03:16:56;1.10;;;1.10;;
28756;SDS011;44294;48.282;14.282;2023-05-24T03:19:44;1.07;;;1.07;;
28756;SDS011;44294;48.282;14.282;2023-05-24T03:22:31;1.10;;;1.10;;
28756;SDS011;44294;48.282;14.282;2023-05-24T03:25:19;1.00;;;1.00;;
28756;SDS011;44294;48.282;14.282;2023-05-24T03:28:06;1.10;;;1.10;;
28756;SDS011;44294;48.282;14.282;2023-05-24T03:30:53;1.47;;;1.20;;
28756;SDS011;44294;48.282;14.282;2023-05-24T03:33:41;1.10;;;1.10;;
28756;SDS011;44294;48.282;14.282;2023-05-24T03:36:28;1.10;;;1.10;;
28756;SDS011;44294;48.282;14.282;2023-05-24T03:39:16;1.10;;;1.10;;
28756;SDS011;44294;48.282;14.282;2023-05-24T03:42:03;1.00;;;1.00;;
28756;SDS011;44294;48.282;14.282;2023-05-24T03:44:50;1.10;;;1.10;;
28756;SDS011;44294;48.282;14.282;2023-05-24T03:47:38;1.00;;;1.00;;
28756;SDS011;44294;48.282;14.282;2023-05-24T03:50:26;1.00;;;1.00;;
28756;SDS011;44294;48.282;14.282;2023-05-24T03:53:13;1.10;;;1.10;;
28756;SDS011;44294;48.282;14.282;2023-05-24T03:56:01;1.00;;;1.00;;
28756;SDS011;44294;48.282;14.282;2023-05-24T03:58:48;1.00;;;1.00;;
28756;SDS011;44294;48.282;14.282;2023-05-24T04:01:37;0.90;;;0.90;;
28756;SDS011;44294;48.282;14.282;2023-05-24T04:04:25;1.03;;;1.03;;
28756;SDS011;44294;48.282;14.282;2023-05-24T04:07:12;0.90;;;0.90;;
28756;SDS011;44294;48.282;14.282;2023-05-24T04:10:00;0.90;;;0.90;;
28756;SDS011;44294;48.282;14.282;2023-05-24T04:12:48;1.00;;;1.00;;
28756;SDS011;44294;48.282;14.282;2023-05-24T04:15:35;1.00;;;1.00;;
28756;SDS011;44294;48.282;14.282;2023-05-24T04:18:24;1.00;;;1.00;;
28756;SDS011;44294;48.282;14.282;2023-05-24T04:21:11;0.90;;;0.90;;
28756;SDS011;44294;48.282;14.282;2023-05-24T04:23:59;0.90;;;0.90;;
28756;SDS011;44294;48.282;14.282;2023-05-24T04:26:46;1.00;;;1.00;;
28756;SDS011;44294;48.282;14.282;2023-05-24T04:29:34;3.43;;;0.93;;
28756;SDS011;44294;48.282;14.282;2023-05-24T04:32:21;0.90;;;0.90;;
28756;SDS011;44294;48.282;14.282;2023-05-24T04:35:09;0.90;;;0.90;;
28756;SDS011;44294;48.282;14.282;2023-05-24T04:37:57;0.80;;;0.80;;
28756;SDS011;44294;48.282;14.282;2023-05-24T04:40:45;1.33;;;0.90;;
28756;SDS011;44294;48.282;14.282;2023-05-24T04:43:32;0.80;;;0.80;;
28756;SDS011;44294;48.282;14.282;2023-05-24T04:46:20;0.80;;;0.80;;
28756;SDS011;44294;48.282;14.282;2023-05-24T04:49:07;0.80;;;0.80;;
28756;SDS011;44294;48.282;14.282;2023-05-24T04:51:55;0.90;;;0.90;;
28756;SDS011;44294;48.282;14.282;2023-05-24T04:54:42;0.90;;;0.90;;
28756;SDS011;44294;48.282;14.282;2023-05-24T04:57:30;0.90;;;0.90;;
28756;SDS011;44294;48.282;14.282;2023-05-24T05:00:17;0.80;;;0.80;;
28756;SDS011;44294;48.282;14.282;2023-05-24T05:03:05;0.80;;;0.80;;
28756;SDS011;44294;48.282;14.282;2023-05-24T05:05:53;0.80;;;0.80;;
28756;SDS011;44294;48.282;14.282;2023-05-24T05:08:40;1.03;;;0.80;;
28756;SDS011;44294;48.282;14.282;2023-05-24T05:11:27;0.80;;;0.80;;
28756;SDS011;44294;48.282;14.282;2023-05-24T05:14:14;0.80;;;0.80;;
28756;SDS011;44294;48.282;14.282;2023-05-24T05:17:02;0.80;;;0.80;;
28756;SDS011;44294;48.282;14.282;2023-05-24T05:19:50;0.80;;;0.80;;
28756;SDS011;44294;48.282;14.282;2023-05-24T05:22:37;1.00;;;0.80;;
28756;SDS011;44294;48.282;14.282;2023-05-24T05:25:24;0.80;;;0.80;;
28756;SDS011;44294;48.282;14.282;2023-05-24T05:28:11;0.80;;;0.80;;
28756;SDS011;44294;48.282;14.282;2023-05-24T05:30:59;0.83;;;0.83;;
28756;SDS011;44294;48.282;14.282;2023-05-24T05:33:46;0.80;;;0.80;;
28756;SDS011;44294;48.282;14.282;2023-05-24T05:36:34;0.80;;;0.80;;
28756;SDS011;44294;48.282;14.282;2023-05-24T05:39:23;0.80;;;0.80;;
28756;SDS011;44294;48.282;14.282;2023-05-24T05:42:10;0.90;;;0.90;;
28756;SDS011;44294;48.282;14.282;2023-05-24T05:44:57;0.80;;;0.80;;
28756;SDS011;44294;48.282;14.282;2023-05-24T05:47:45;0.80;;;0.80;;
28756;SDS011;44294;48.282;14.282;2023-05-24T05:50:32;0.80;;;0.80;;
28756;SDS011;44294;48.282;14.282;2023-05-24T05:53:19;0.80;;;0.80;;
28756;SDS011;44294;48.282;14.282;2023-05-24T05:56:06;0.80;;;0.80;;
28756;SDS011;44294;48.282;14.282;2023-05-24T05:58:54;0.80;;;0.80;;
28756;SDS011;44294;48.282;14.282;2023-05-24T06:01:42;0.90;;;0.90;;
28756;SDS011;44294;48.282;14.282;2023-05-24T06:04:30;0.80;;;0.80;;
28756;SDS011;44294;48.282;14.282;2023-05-24T06:07:18;0.70;;;0.70;;
28756;SDS011;44294;48.282;14.282;2023-05-24T06:10:05;0.70;;;0.70;;
28756;SDS011;44294;48.282;14.282;2023-05-24T06:12:53;0.90;;;0.90;;
28756;SDS011;44294;48.282;14.282;2023-05-24T06:15:40;0.90;;;0.90;;
28756;SDS011;44294;48.282;14.282;2023-05-24T06:18:27;0.90;;;0.90;;
28756;SDS011;44294;48.282;14.282;2023-05-24T06:21:17;0.90;;;0.90;;
28756;SDS011;44294;48.282;14.282;2023-05-24T06:24:04;0.70;;;0.70;;
28756;SDS011;44294;48.282;14.282;2023-05-24T06:26:53;0.80;;;0.80;;
28756;SDS011;44294;48.282;14.282;2023-05-24T06:29:41;0.90;;;0.90;;
28756;SDS011;44294;48.282;14.282;2023-05-24T06:32:28;0.80;;;0.80;;
28756;SDS011;44294;48.282;14.282;2023-05-24T06:35:16;0.90;;;0.90;;
28756;SDS011;44294;48.282;14.282;2023-05-24T06:38:03;0.90;;;0.90;;
28756;SDS011;44294;48.282;14.282;2023-05-24T06:40:51;1.00;;;1.00;;
28756;SDS011;44294;48.282;14.282;2023-05-24T06:43:38;0.90;;;0.90;;
28756;SDS011;44294;48.282;14.282;2023-05-24T06:46:25;0.80;;;0.80;;
28756;SDS011;44294;48.282;14.282;2023-05-24T06:49:13;0.77;;;0.77;;
28756;SDS011;44294;48.282;14.282;2023-05-24T06:52:00;0.80;;;0.80;;
28756;SDS011;44294;48.282;14.282;2023-05-24T06:54:48;0.80;;;0.80;;
28756;SDS011;44294;48.282;14.282;2023-05-24T06:57:35;0.90;;;0.90;;
28756;SDS011;44294;48.282;14.282;2023-05-24T07:00:23;0.80;;;0.80;;
28756;SDS011;44294;48.282;14.282;2023-05-24T07:03:11;0.80;;;0.80;;
28756;SDS011;44294;48.282;14.282;2023-05-24T07:05:58;0.70;;;0.70;;
28756;SDS011;44294;48.282;14.282;2023-05-24T07:08:45;0.80;;;0.80;;
28756;SDS011;44294;48.282;14.282;2023-05-24T07:11:33;0.80;;;0.80;;
28756;SDS011;44294;48.282;14.282;2023-05-24T07:14:20;0.90;;;0.90;;
28756;SDS011;44294;48.282;14.282;2023-05-24T07:17:09;0.80;;;0.80;;
28756;SDS011;44294;48.282;14.282;2023-05-24T07:19:56;0.80;;;0.80;;
28756;SDS011;44294;48.282;14.282;2023-05-24T07:22:43;0.80;;;0.80;;
28756;SDS011;44294;48.282;14.282;2023-05-24T07:25:31;0.80;;;0.80;;
28756;SDS011;44294;48.282;14.282;2023-05-24T07:28:19;0.80;;;0.80;;
28756;SDS011;44294;48.282;14.282;2023-05-24T07:31:07;0.87;;;0.87;;
28756;SDS011;44294;48.282;14.282;2023-05-24T07:33:55;0.80;;;0.80;;
28756;SDS011;44294;48.282;14.282;2023-05-24T07:36:42;0.80;;;0.80;;
28756;SDS011;44294;48.282;14.282;2023-05-24T07:39:30;0.80;;;0.80;;
28756;SDS011;44294;48.282;14.282;2023-05-24T07:42:18;0.90;;;0.90;;
28756;SDS011;44294;48.282;14.282;2023-05-24T07:45:07;0.80;;;0.80;;
28756;SDS011;44294;48.282;14.282;2023-05-24T07:47:55;0.90;;;0.83;;
28756;SDS011;44294;48.282;14.282;2023-05-24T07:50:42;1.70;;;1.60;;
28756;SDS011;44294;48.282;14.282;2023-05-24T07:53:31;0.80;;;0.80;;
28756;SDS011;44294;48.282;14.282;2023-05-24T07:56:20;0.80;;;0.80;;
28756;SDS011;44294;48.282;14.282;2023-05-24T07:59:07;1.37;;;0.87;;
28756;SDS011;44294;48.282;14.282;2023-05-24T08:01:54;0.83;;;0.83;;
28756;SDS011;44294;48.282;14.282;2023-05-24T08:04:43;0.90;;;0.90;;
28756;SDS011;44294;48.282;14.282;2023-05-24T08:07:31;0.83;;;0.83;;
28756;SDS011;44294;48.282;14.282;2023-05-24T08:10:18;1.10;;;1.10;;
28756;SDS011;44294;48.282;14.282;2023-05-24T08:13:07;0.93;;;0.90;;
28756;SDS011;44294;48.282;14.282;2023-05-24T08:15:54;0.90;;;0.90;;
28756;SDS011;44294;48.282;14.282;2023-05-24T08:18:41;0.90;;;0.90;;
28756;SDS011;44294;48.282;14.282;2023-05-24T08:21:28;0.80;;;0.80;;
28756;SDS011;44294;48.282;14.282;2023-05-24T08:24:17;0.90;;;0.90;;
28756;SDS011;44294;48.282;14.282;2023-05-24T08:27:04;0.83;;;0.83;;
28756;SDS011;44294;48.282;14.282;2023-05-24T08:29:52;0.93;;;0.93;;
28756;SDS011;44294;48.282;14.282;2023-05-24T08:32:40;1.00;;;1.00;;
28756;SDS011;44294;48.282;14.282;2023-05-24T08:35:27;1.00;;;1.00;;
28756;SDS011;44294;48.282;14.282;2023-05-24T08:38:14;1.00;;;1.00;;
28756;SDS011;44294;48.282;14.282;2023-05-24T08:41:04;1.00;;;1.00;;
28756;SDS011;44294;48.282;14.282;2023-05-24T08:43:51;1.03;;;1.03;;
28756;SDS011;44294;48.282;14.282;2023-05-24T08:46:38;1.10;;;1.10;;
28756;SDS011;44294;48.282;14.282;2023-05-24T08:49:26;1.20;;;1.20;;
28756;SDS011;44294;48.282;14.282;2023-05-24T08:52:14;1.23;;;1.10;;
28756;SDS011;44294;48.282;14.282;2023-05-24T08:55:05;1.10;;;1.10;;
28756;SDS011;44294;48.282;14.282;2023-05-24T08:57:52;1.10;;;1.10;;
28756;SDS011;44294;48.282;14.282;2023-05-24T09:00:41;1.20;;;1.20;;
28756;SDS011;44294;48.282;14.282;2023-05-24T09:03:28;1.07;;;1.07;;
28756;SDS011;44294;48.282;14.282;2023-05-24T09:06:17;1.20;;;1.20;;
28756;SDS011;44294;48.282;14.282;2023-05-24T09:09:05;1.20;;;1.20;;
28756;SDS011;44294;48.282;14.282;2023-05-24T09:11:53;1.20;;;1.20;;
28756;SDS011;44294;48.282;14.282;2023-05-24T09:14:47;1.20;;;1.20;;
28756;SDS011;44294;48.282;14.282;2023-05-24T09:17:32;1.33;;;1.20;;
28756;SDS011;44294;48.282;14.282;2023-05-24T09:20:20;1.30;;;1.30;;
28756;SDS011;44294;48.282;14.282;2023-05-24T09:23:08;1.30;;;1.30;;
28756;SDS011;44294;48.282;14.282;2023-05-24T09:25:55;1.30;;;1.30;;
28756;SDS011;44294;48.282;14.282;2023-05-24T09:28:43;1.10;;;1.10;;
28756;SDS011;44294;48.282;14.282;2023-05-24T09:31:31;1.10;;;1.10;;
28756;SDS011;44294;48.282;14.282;2023-05-24T09:34:19;1.43;;;1.10;;
28756;SDS011;44294;48.282;14.282;2023-05-24T09:37:10;1.10;;;1.10;;
28756;SDS011;44294;48.282;14.282;2023-05-24T09:39:58;1.00;;;1.00;;
28756;SDS011;44294;48.282;14.282;2023-05-24T09:42:46;1.10;;;1.10;;
28756;SDS011;44294;48.282;14.282;2023-05-24T09:45:40;1.00;;;1.00;;
28756;SDS011;44294;48.282;14.282;2023-05-24T09:48:24;1.00;;;1.00;;
28756;SDS011;44294;48.282;14.282;2023-05-24T09:51:12;0.97;;;0.90;;
28756;SDS011;44294;48.282;14.282;2023-05-24T09:54:01;1.00;;;1.00;;
28756;SDS011;44294;48.282;14.282;2023-05-24T09:56:49;0.90;;;0.90;;
28756;SDS011;44294;48.282;14.282;2023-05-24T09:59:38;0.90;;;0.90;;
28756;SDS011;44294;48.282;14.282;2023-05-24T10:02:26;0.90;;;0.90;;
28756;SDS011;44294;48.282;14.282;2023-05-24T10:05:13;0.90;;;0.90;;
28756;SDS011;44294;48.282;14.282;2023-05-24T10:08:01;0.90;;;0.90;;
28756;SDS011;44294;48.282;14.282;2023-05-24T10:10:51;0.90;;;0.90;;
28756;SDS011;44294;48.282;14.282;2023-05-24T10:13:39;1.00;;;1.00;;
28756;SDS011;44294;48.282;14.282;2023-05-24T10:16:26;0.90;;;0.90;;
28756;SDS011;44294;48.282;14.282;2023-05-24T10:19:14;1.00;;;1.00;;
28756;SDS011;44294;48.282;14.282;2023-05-24T10:22:07;0.90;;;0.90;;
28756;SDS011;44294;48.282;14.282;2023-05-24T10:24:52;0.90;;;0.90;;
28756;SDS011;44294;48.282;14.282;2023-05-24T10:27:42;0.90;;;0.90;;
28756;SDS011;44294;48.282;14.282;2023-05-24T10:30:32;0.97;;;0.90;;
28756;SDS011;44294;48.282;14.282;2023-05-24T10:33:20;0.80;;;0.80;;
28756;SDS011;44294;48.282;14.282;2023-05-24T10:36:09;0.90;;;0.90;;
28756;SDS011;44294;48.282;14.282;2023-05-24T10:38:56;0.80;;;0.80;;
28756;SDS011;44294;48.282;14.282;2023-05-24T10:41:44;0.90;;;0.90;;
28756;SDS011;44294;48.282;14.282;2023-05-24T10:44:31;0.80;;;0.80;;
28756;SDS011;44294;48.282;14.282;2023-05-24T10:47:19;0.80;;;0.80;;
28756;SDS011;44294;48.282;14.282;2023-05-24T10:50:15;0.80;;;0.80;;
28756;SDS011;44294;48.282;14.282;2023-05-24T10:53:57;0.70;;;0.70;;
28756;SDS011;44294;48.282;14.282;2023-05-24T10:55:57;0.80;;;0.80;;
28756;SDS011;44294;48.282;14.282;2023-05-24T11:01:43;0.90;;;0.90;;
28756;SDS011;44294;48.282;14.282;2023-05-24T11:04:36;0.83;;;0.83;;
28756;SDS011;44294;48.282;14.282;2023-05-24T11:07:22;0.80;;;0.80;;
28756;SDS011;44294;48.282;14.282;2023-05-24T11:10:13;0.90;;;0.90;;
28756;SDS011;44294;48.282;14.282;2023-05-24T11:13:01;0.80;;;0.80;;
28756;SDS011;44294;48.282;14.282;2023-05-24T11:15:49;0.90;;;0.90;;
28756;SDS011;44294;48.282;14.282;2023-05-24T11:18:37;0.90;;;0.90;;
28756;SDS011;44294;48.282;14.282;2023-05-24T11:21:25;0.90;;;0.90;;
28756;SDS011;44294;48.282;14.282;2023-05-24T11:24:14;0.90;;;0.90;;
28756;SDS011;44294;48.282;14.282;2023-05-24T11:27:02;1.60;;;0.87;;
28756;SDS011;44294;48.282;14.282;2023-05-24T11:29:52;1.00;;;1.00;;
28756;SDS011;44294;48.282;14.282;2023-05-24T11:32:41;0.80;;;0.80;;
28756;SDS011;44294;48.282;14.282;2023-05-24T11:35:28;0.90;;;0.90;;
28756;SDS011;44294;48.282;14.282;2023-05-24T11:38:15;0.90;;;0.90;;
28756;SDS011;44294;48.282;14.282;2023-05-24T11:41:03;0.90;;;0.90;;
28756;SDS011;44294;48.282;14.282;2023-05-24T11:43:52;1.00;;;1.00;;
28756;SDS011;44294;48.282;14.282;2023-05-24T11:46:39;1.30;;;1.30;;
28756;SDS011;44294;48.282;14.282;2023-05-24T11:49:29;1.00;;;1.00;;
28756;SDS011;44294;48.282;14.282;2023-05-24T11:52:16;0.90;;;0.90;;
28756;SDS011;44294;48.282;14.282;2023-05-24T11:55:04;0.90;;;0.90;;
28756;SDS011;44294;48.282;14.282;2023-05-24T11:57:52;1.00;;;1.00;;
28756;SDS011;44294;48.282;14.282;2023-05-24T12:00:41;0.90;;;0.90;;
28756;SDS011;44294;48.282;14.282;2023-05-24T12:03:28;0.90;;;0.90;;
28756;SDS011;44294;48.282;14.282;2023-05-24T12:06:15;1.00;;;1.00;;
28756;SDS011;44294;48.282;14.282;2023-05-24T12:09:03;1.00;;;0.90;;
28756;SDS011;44294;48.282;14.282;2023-05-24T12:11:55;0.90;;;0.90;;
28756;SDS011;44294;48.282;14.282;2023-05-24T12:14:47;3.00;;;1.00;;
28756;SDS011;44294;48.282;14.282;2023-05-24T12:17:34;1.00;;;1.00;;
28756;SDS011;44294;48.282;14.282;2023-05-24T12:20:22;1.00;;;1.00;;
28756;SDS011;44294;48.282;14.282;2023-05-24T12:23:09;0.97;;;0.97;;
28756;SDS011;44294;48.282;14.282;2023-05-24T12:25:57;1.10;;;1.10;;
28756;SDS011;44294;48.282;14.282;2023-05-24T12:28:46;1.10;;;1.00;;
28756;SDS011;44294;48.282;14.282;2023-05-24T12:31:34;1.00;;;1.00;;
28756;SDS011;44294;48.282;14.282;2023-05-24T12:34:22;1.00;;;1.00;;
28756;SDS011;44294;48.282;14.282;2023-05-24T12:37:10;1.00;;;1.00;;
28756;SDS011;44294;48.282;14.282;2023-05-24T12:39:59;1.00;;;1.00;;
28756;SDS011;44294;48.282;14.282;2023-05-24T12:42:50;0.90;;;0.90;;
28756;SDS011;44294;48.282;14.282;2023-05-24T12:45:38;1.00;;;1.00;;
28756;SDS011;44294;48.282;14.282;2023-05-24T12:48:25;0.93;;;0.93;;
28756;SDS011;44294;48.282;14.282;2023-05-24T12:51:13;0.90;;;0.90;;
28756;SDS011;44294;48.282;14.282;2023-05-24T12:54:00;0.90;;;0.90;;
28756;SDS011;44294;48.282;14.282;2023-05-24T12:56:50;1.10;;;1.10;;
28756;SDS011;44294;48.282;14.282;2023-05-24T12:59:37;1.10;;;1.10;;
28756;SDS011;44294;48.282;14.282;2023-05-24T13:02:24;0.90;;;0.90;;
28756;SDS011;44294;48.282;14.282;2023-05-24T13:05:12;0.90;;;0.90;;
28756;SDS011;44294;48.282;14.282;2023-05-24T13:08:00;0.90;;;0.90;;
28756;SDS011;44294;48.282;14.282;2023-05-24T13:10:47;0.90;;;0.90;;
28756;SDS011;44294;48.282;14.282;2023-05-24T13:13:36;0.90;;;0.90;;
28756;SDS011;44294;48.282;14.282;2023-05-24T13:16:23;1.00;;;1.00;;
28756;SDS011;44294;48.282;14.282;2023-05-24T13:19:11;1.00;;;1.00;;
28756;SDS011;44294;48.282;14.282;2023-05-24T13:21:58;1.10;;;1.10;;
28756;SDS011;44294;48.282;14.282;2023-05-24T13:24:46;1.07;;;1.07;;
28756;SDS011;44294;48.282;14.282;2023-05-24T13:27:33;2.10;;;1.37;;
28756;SDS011;44294;48.282;14.282;2023-05-24T13:30:21;0.97;;;0.97;;
28756;SDS011;44294;48.282;14.282;2023-05-24T13:33:10;0.90;;;0.90;;
28756;SDS011;44294;48.282;14.282;2023-05-24T13:35:57;0.90;;;0.90;;
28756;SDS011;44294;48.282;14.282;2023-05-24T13:38:44;1.80;;;0.93;;
28756;SDS011;44294;48.282;14.282;2023-05-24T13:41:31;0.90;;;0.90;;
28756;SDS011;44294;48.282;14.282;2023-05-24T13:44:19;1.17;;;0.90;;
28756;SDS011;44294;48.282;14.282;2023-05-24T13:47:07;0.80;;;0.80;;
28756;SDS011;44294;48.282;14.282;2023-05-24T13:49:54;0.90;;;0.90;;
28756;SDS011;44294;48.282;14.282;2023-05-24T13:52:42;0.90;;;0.90;;
28756;SDS011;44294;48.282;14.282;2023-05-24T13:55:30;0.90;;;0.90;;
28756;SDS011;44294;48.282;14.282;2023-05-24T13:58:19;0.90;;;0.90;;
28756;SDS011;44294;48.282;14.282;2023-05-24T14:01:06;0.97;;;0.97;;
28756;SDS011;44294;48.282;14.282;2023-05-24T14:03:53;0.80;;;0.80;;
28756;SDS011;44294;48.282;14.282;2023-05-24T14:06:41;0.80;;;0.80;;
28756;SDS011;44294;48.282;14.282;2023-05-24T14:09:28;0.87;;;0.87;;
28756;SDS011;44294;48.282;14.282;2023-05-24T14:12:15;1.17;;;1.07;;
28756;SDS011;44294;48.282;14.282;2023-05-24T14:15:03;0.90;;;0.90;;
28756;SDS011;44294;48.282;14.282;2023-05-24T14:17:51;0.90;;;0.90;;
28756;SDS011;44294;48.282;14.282;2023-05-24T14:20:39;1.07;;;0.90;;
28756;SDS011;44294;48.282;14.282;2023-05-24T14:23:26;0.90;;;0.90;;
28756;SDS011;44294;48.282;14.282;2023-05-24T14:26:15;0.90;;;0.90;;
28756;SDS011;44294;48.282;14.282;2023-05-24T14:29:03;0.90;;;0.90;;
28756;SDS011;44294;48.282;14.282;2023-05-24T14:31:50;0.87;;;0.87;;
28756;SDS011;44294;48.282;14.282;2023-05-24T14:34:38;1.07;;;1.07;;
28756;SDS011;44294;48.282;14.282;2023-05-24T14:37:25;1.50;;;1.40;;
28756;SDS011;44294;48.282;14.282;2023-05-24T14:40:12;1.00;;;1.00;;
28756;SDS011;44294;48.282;14.282;2023-05-24T14:43:00;1.00;;;1.00;;
28756;SDS011;44294;48.282;14.282;2023-05-24T14:45:47;0.87;;;0.87;;
28756;SDS011;44294;48.282;14.282;2023-05-24T14:48:34;0.90;;;0.90;;
28756;SDS011;44294;48.282;14.282;2023-05-24T14:51:22;0.80;;;0.80;;
28756;SDS011;44294;48.282;14.282;2023-05-24T14:54:09;0.90;;;0.90;;
28756;SDS011;44294;48.282;14.282;2023-05-24T14:56:57;1.00;;;1.00;;
28756;SDS011;44294;48.282;14.282;2023-05-24T14:59:44;0.90;;;0.90;;
28756;SDS011;44294;48.282;14.282;2023-05-24T15:02:32;0.80;;;0.80;;
28756;SDS011;44294;48.282;14.282;2023-05-24T15:05:19;0.90;;;0.90;;
28756;SDS011;44294;48.282;14.282;2023-05-24T15:08:06;0.83;;;0.83;;
28756;SDS011;44294;48.282;14.282;2023-05-24T15:10:53;1.00;;;1.00;;
28756;SDS011;44294;48.282;14.282;2023-05-24T15:13:41;1.00;;;1.00;;
28756;SDS011;44294;48.282;14.282;2023-05-24T15:16:28;0.97;;;0.97;;
28756;SDS011;44294;48.282;14.282;2023-05-24T15:19:16;1.10;;;1.10;;
28756;SDS011;44294;48.282;14.282;2023-05-24T15:22:03;1.10;;;1.10;;
28756;SDS011;44294;48.282;14.282;2023-05-24T15:24:50;1.20;;;1.20;;
28756;SDS011;44294;48.282;14.282;2023-05-24T15:27:38;1.30;;;1.20;;
28756;SDS011;44294;48.282;14.282;2023-05-24T15:30:25;1.43;;;1.00;;
28756;SDS011;44294;48.282;14.282;2023-05-24T15:33:12;1.43;;;1.00;;
28756;SDS011;44294;48.282;14.282;2023-05-24T15:36:04;1.03;;;1.00;;
28756;SDS011;44294;48.282;14.282;2023-05-24T15:38:51;0.90;;;0.90;;
28756;SDS011;44294;48.282;14.282;2023-05-24T15:41:38;0.90;;;0.90;;
28756;SDS011;44294;48.282;14.282;2023-05-24T15:44:26;0.80;;;0.80;;
28756;SDS011;44294;48.282;14.282;2023-05-24T15:47:13;0.90;;;0.90;;
28756;SDS011;44294;48.282;14.282;2023-05-24T15:50:01;0.80;;;0.80;;
28756;SDS011;44294;48.282;14.282;2023-05-24T15:52:49;0.87;;;0.87;;
28756;SDS011;44294;48.282;14.282;2023-05-24T15:55:36;0.83;;;0.83;;
28756;SDS011;44294;48.282;14.282;2023-05-24T15:58:24;0.90;;;0.90;;
28756;SDS011;44294;48.282;14.282;2023-05-24T16:01:11;0.80;;;0.80;;
28756;SDS011;44294;48.282;14.282;2023-05-24T16:03:58;1.00;;;0.90;;
28756;SDS011;44294;48.282;14.282;2023-05-24T16:06:46;0.90;;;0.90;;
28756;SDS011;44294;48.282;14.282;2023-05-24T16:09:34;0.90;;;0.90;;
28756;SDS011;44294;48.282;14.282;2023-05-24T16:12:21;0.90;;;0.90;;
28756;SDS011;44294;48.282;14.282;2023-05-24T16:15:09;1.00;;;1.00;;
28756;SDS011;44294;48.282;14.282;2023-05-24T16:17:56;0.93;;;0.93;;
28756;SDS011;44294;48.282;14.282;2023-05-24T16:20:43;0.90;;;0.90;;
28756;SDS011;44294;48.282;14.282;2023-05-24T16:23:31;0.90;;;0.90;;
28756;SDS011;44294;48.282;14.282;2023-05-24T16:26:18;0.90;;;0.90;;
28756;SDS011;44294;48.282;14.282;2023-05-24T16:29:06;0.90;;;0.90;;
28756;SDS011;44294;48.282;14.282;2023-05-24T16:31:55;0.90;;;0.90;;
28756;SDS011;44294;48.282;14.282;2023-05-24T16:34:43;0.90;;;0.90;;
28756;SDS011;44294;48.282;14.282;2023-05-24T16:37:30;0.90;;;0.90;;
28756;SDS011;44294;48.282;14.282;2023-05-24T16:40:17;0.90;;;0.90;;
28756;SDS011;44294;48.282;14.282;2023-05-24T16:43:04;0.90;;;0.90;;
28756;SDS011;44294;48.282;14.282;2023-05-24T16:45:52;0.90;;;0.90;;
28756;SDS011;44294;48.282;14.282;2023-05-24T16:48:40;0.90;;;0.90;;
28756;SDS011;44294;48.282;14.282;2023-05-24T16:51:27;0.90;;;0.90;;
28756;SDS011;44294;48.282;14.282;2023-05-24T16:54:15;1.00;;;1.00;;
28756;SDS011;44294;48.282;14.282;2023-05-24T16:57:02;1.00;;;1.00;;